createdAt,value
2018-10-18T00:02:11.302Z,89.28
2018-10-18T00:04:38.144Z,89.31
2018-10-18T00:07:05.460Z,89.50
2018-10-18T00:09:32.392Z,89.23
2018-10-18T00:11:59.333Z,89.41
2018-10-18T00:14:26.324Z,89.30
2018-10-18T00:16:53.236Z,89.39
2018-10-18T00:19:20.202Z,88.96
2018-10-18T00:21:47.126Z,89.03
2018-10-18T00:24:14.060Z,89.72
2018-10-18T00:26:40.966Z,91.23
2018-10-18T00:29:07.889Z,92.27
2018-10-18T00:31:34.805Z,92.62
2018-10-18T00:34:01.747Z,92.66
2018-10-18T00:36:28.672Z,91.69
2018-10-18T00:38:55.612Z,91.03
2018-10-18T00:41:22.623Z,90.84
2018-10-18T00:43:49.557Z,90.96
2018-10-18T00:46:16.457Z,92.20
2018-10-18T00:48:43.373Z,92.79
2018-10-18T00:51:10.268Z,93.78
2018-10-18T00:53:37.206Z,93.95
2018-10-18T00:56:04.256Z,94.81
2018-10-18T00:58:31.144Z,94.77
2018-10-18T01:00:58.079Z,95.28
2018-10-18T01:03:24.993Z,95.58
2018-10-18T01:05:51.961Z,96.49
2018-10-18T01:08:18.905Z,95.89
2018-10-18T01:10:45.824Z,95.64
2018-10-18T01:13:12.738Z,95.70
2018-10-18T01:15:39.669Z,95.56
2018-10-18T01:18:06.872Z,96.01
2018-10-18T01:20:33.749Z,95.74
2018-10-18T01:23:00.694Z,96.20
2018-10-18T01:25:27.625Z,96.43
2018-10-18T01:27:54.616Z,96.46
2018-10-18T01:30:21.577Z,96.27
2018-10-18T01:32:48.484Z,96.15
2018-10-18T01:35:15.397Z,96.48
2018-10-18T01:37:42.360Z,96.02
2018-10-18T01:40:09.293Z,95.91
2018-10-18T01:42:36.218Z,95.89
2018-10-18T01:45:03.350Z,95.87
2018-10-18T01:47:30.301Z,95.68
2018-10-18T01:49:57.281Z,96.14
2018-10-18T01:52:24.213Z,96.01
2018-10-18T01:54:51.151Z,95.90
2018-10-18T01:57:18.093Z,96.17
2018-10-18T01:59:45.055Z,96.01
2018-10-18T02:02:12.059Z,96.10
2018-10-18T02:04:39.003Z,96.10
2018-10-18T02:07:05.803Z,96.28
2018-10-18T02:09:32.729Z,96.47
2018-10-18T02:11:59.741Z,95.54
2018-10-18T02:14:26.628Z,95.90
2018-10-18T02:16:53.572Z,95.72
2018-10-18T02:19:20.547Z,95.34
2018-10-18T02:21:47.471Z,94.81
2018-10-18T02:24:14.461Z,95.20
2018-10-18T02:26:41.365Z,95.77
2018-10-18T02:29:08.311Z,95.62
2018-10-18T02:31:35.349Z,96.32
2018-10-18T02:34:02.310Z,96.19
2018-10-18T02:36:29.246Z,95.97
2018-10-18T02:38:56.156Z,96.39
2018-10-18T02:41:23.074Z,96.52
2018-10-18T02:43:49.972Z,96.62
2018-10-18T02:46:16.900Z,96.59
2018-10-18T02:48:43.858Z,96.32
2018-10-18T02:51:10.773Z,96.67
2018-10-18T02:53:37.690Z,96.73
2018-10-18T02:56:04.633Z,96.96
2018-10-18T02:58:31.518Z,96.84
2018-10-18T03:00:58.436Z,97.05
2018-10-18T03:03:25.341Z,97.31
2018-10-18T03:05:52.327Z,96.55
2018-10-18T03:08:19.177Z,96.46
2018-10-18T03:10:46.097Z,95.95
2018-10-18T03:13:13.013Z,96.70
2018-10-18T03:15:39.937Z,96.29
2018-10-18T03:18:07.167Z,96.32
2018-10-18T03:20:34.055Z,96.31
2018-10-18T03:23:01.001Z,96.24
2018-10-18T03:25:27.917Z,96.17
2018-10-18T03:27:54.866Z,95.90
2018-10-18T03:30:21.784Z,96.83
2018-10-18T03:32:48.728Z,96.21
2018-10-18T03:35:15.667Z,96.40
2018-10-18T03:37:42.649Z,96.12
2018-10-18T03:40:09.948Z,95.79
2018-10-18T03:42:36.907Z,96.12
2018-10-18T03:45:04.845Z,96.32
2018-10-18T03:47:31.802Z,96.12
2018-10-18T03:49:58.737Z,96.29
2018-10-18T03:52:25.685Z,96.24
2018-10-18T03:54:52.625Z,95.96
2018-10-18T03:57:19.598Z,95.83
2018-10-18T03:59:46.648Z,95.91
2018-10-18T04:02:13.567Z,95.72
2018-10-18T04:04:41.086Z,95.86
2018-10-18T04:07:08.758Z,96.21
2018-10-18T04:09:35.718Z,96.28
2018-10-18T04:12:02.702Z,96.85
2018-10-18T04:14:29.614Z,96.54
2018-10-18T04:16:56.571Z,97.01
2018-10-18T04:19:23.492Z,96.91
2018-10-18T04:21:50.433Z,96.87
2018-10-18T04:24:17.471Z,97.46
2018-10-18T04:26:44.382Z,97.11
2018-10-18T04:29:11.360Z,97.18
2018-10-18T04:31:38.307Z,97.02
2018-10-18T04:34:05.257Z,97.76
2018-10-18T04:36:32.195Z,97.37
2018-10-18T04:38:59.131Z,97.38
2018-10-18T04:41:26.091Z,97.82
2018-10-18T04:43:53.042Z,97.65
2018-10-18T04:46:19.988Z,97.85
2018-10-18T04:48:47.033Z,97.92
2018-10-18T04:51:13.931Z,97.80
2018-10-18T04:53:40.845Z,97.75
2018-10-18T04:56:07.780Z,97.38
2018-10-18T04:58:34.726Z,97.62
2018-10-18T05:01:01.760Z,97.67
2018-10-18T05:03:28.637Z,97.56
2018-10-18T05:05:58.061Z,97.42
2018-10-18T05:08:25.808Z,97.40
2018-10-18T05:10:52.826Z,97.74
2018-10-18T05:13:19.962Z,97.67
2018-10-18T05:15:46.765Z,97.83
2018-10-18T05:18:13.812Z,97.57
2018-10-18T05:20:40.758Z,97.70
2018-10-18T05:23:08.307Z,97.83
2018-10-18T05:25:35.330Z,97.50
2018-10-18T05:28:02.817Z,97.59
2018-10-18T05:30:29.966Z,97.36
2018-10-18T05:32:56.933Z,97.50
2018-10-18T05:35:23.910Z,97.32
2018-10-18T05:37:50.972Z,97.21
2018-10-18T05:40:17.958Z,97.43
2018-10-18T05:42:44.933Z,97.31
2018-10-18T05:45:11.886Z,97.25
2018-10-18T05:47:38.841Z,97.10
2018-10-18T05:50:06.045Z,96.92
2018-10-18T05:52:33.003Z,97.17
2018-10-18T05:54:59.985Z,97.02
2018-10-18T05:57:26.902Z,97.01
2018-10-18T05:59:53.832Z,96.90
2018-10-18T06:02:20.780Z,96.88
2018-10-18T06:04:47.711Z,96.83
2018-10-18T06:07:14.766Z,96.67
2018-10-18T06:09:41.623Z,96.50
2018-10-18T06:12:08.590Z,96.42
2018-10-18T06:14:35.528Z,96.31
2018-10-18T06:17:02.482Z,95.86
2018-10-18T06:19:29.422Z,95.75
2018-10-18T06:21:56.357Z,95.47
2018-10-18T06:24:23.379Z,95.51
2018-10-18T06:26:50.313Z,95.18
2018-10-18T06:29:17.347Z,95.02
2018-10-18T06:31:44.236Z,94.97
2018-10-18T06:34:11.169Z,94.91
2018-10-18T06:36:38.145Z,94.90
2018-10-18T06:39:06.903Z,94.99
2018-10-18T06:41:33.851Z,94.90
2018-10-18T06:44:00.815Z,94.97
2018-10-18T06:46:28.005Z,94.34
2018-10-18T06:48:55.016Z,94.66
2018-10-18T06:51:21.939Z,94.34
2018-10-18T06:53:48.882Z,94.56
2018-10-18T06:56:15.826Z,94.59
2018-10-18T06:58:42.773Z,94.27
2018-10-18T07:01:09.733Z,94.13
2018-10-18T07:03:36.666Z,94.02
2018-10-18T07:06:04.160Z,94.39
2018-10-18T07:08:31.110Z,94.22
2018-10-18T07:10:58.144Z,94.30
2018-10-18T07:13:25.038Z,93.99
2018-10-18T07:15:51.969Z,93.91
2018-10-18T07:18:18.977Z,93.55
2018-10-18T07:20:45.913Z,93.39
2018-10-18T07:23:12.883Z,93.22
2018-10-18T07:25:39.833Z,93.05
2018-10-18T07:28:06.791Z,93.08
2018-10-18T07:30:33.726Z,93.40
2018-10-18T07:33:00.680Z,93.12
2018-10-18T07:35:27.636Z,92.70
2018-10-18T07:37:54.598Z,93.03
2018-10-18T07:40:21.541Z,92.75
2018-10-18T07:42:48.490Z,92.70
2018-10-18T07:45:15.454Z,92.47
2018-10-18T07:47:43.098Z,92.70
2018-10-18T07:50:10.434Z,92.78
2018-10-18T07:52:37.388Z,92.82
2018-10-18T07:55:05.227Z,92.27
2018-10-18T07:57:32.243Z,92.46
2018-10-18T07:59:59.235Z,92.60
2018-10-18T08:02:26.133Z,92.93
2018-10-18T08:04:53.071Z,92.85
2018-10-18T08:07:20.026Z,93.44
2018-10-18T08:09:46.980Z,93.77
2018-10-18T08:12:13.954Z,94.56
2018-10-18T08:14:40.933Z,94.74
2018-10-18T08:17:07.886Z,94.95
2018-10-18T08:19:34.853Z,95.40
2018-10-18T08:22:01.798Z,95.46
2018-10-18T08:24:28.754Z,95.70
2018-10-18T08:26:55.702Z,96.01
2018-10-18T08:29:22.657Z,95.68
2018-10-18T08:31:49.629Z,95.77
2018-10-18T08:34:16.560Z,95.90
2018-10-18T08:36:43.490Z,95.65
2018-10-18T08:39:11.333Z,95.48
2018-10-18T08:41:38.265Z,95.45
2018-10-18T08:44:05.251Z,95.24
2018-10-18T08:46:32.174Z,95.53
2018-10-18T08:48:59.188Z,95.62
2018-10-18T08:51:26.096Z,95.51
2018-10-18T08:53:53.026Z,95.70
2018-10-18T08:56:20.025Z,95.71
2018-10-18T08:58:46.945Z,95.36
2018-10-18T09:01:13.946Z,95.32
2018-10-18T09:03:40.878Z,95.80
2018-10-18T09:06:07.845Z,95.03
2018-10-18T09:08:34.784Z,94.66
2018-10-18T09:11:01.763Z,94.35
2018-10-18T09:13:28.691Z,95.05
2018-10-18T09:15:55.713Z,94.90
2018-10-18T09:18:22.581Z,94.90
2018-10-18T09:20:49.558Z,94.66
2018-10-18T09:23:16.514Z,95.09
2018-10-18T09:25:43.518Z,94.09
2018-10-18T09:28:10.469Z,93.77
2018-10-18T09:30:37.414Z,93.96
2018-10-18T09:33:04.369Z,94.25
2018-10-18T09:35:31.316Z,93.40
2018-10-18T09:37:58.266Z,93.47
2018-10-18T09:40:25.213Z,93.67
2018-10-18T09:42:52.202Z,92.72
2018-10-18T09:45:19.134Z,93.17
2018-10-18T09:47:46.110Z,92.75
2018-10-18T09:50:13.066Z,93.19
2018-10-18T09:52:40.071Z,92.18
2018-10-18T09:55:08.644Z,92.33
2018-10-18T09:57:35.580Z,92.51
2018-10-18T10:00:02.915Z,92.05
2018-10-18T10:02:36.562Z,91.67
2018-10-18T10:05:03.752Z,91.96
2018-10-18T10:07:30.692Z,91.72
2018-10-18T10:09:57.633Z,90.94
2018-10-18T10:12:24.578Z,91.48
2018-10-18T10:14:51.501Z,89.87
2018-10-18T10:17:18.451Z,89.83
2018-10-18T10:19:45.397Z,88.80
2018-10-18T10:22:12.341Z,87.66
2018-10-18T10:24:39.383Z,86.70
2018-10-18T10:27:06.326Z,87.37
2018-10-18T10:29:33.251Z,87.56
2018-10-18T10:32:00.183Z,86.73
2018-10-18T10:34:27.130Z,86.52
2018-10-18T10:36:54.207Z,85.26
2018-10-18T10:39:22.022Z,85.18
2018-10-18T10:41:48.986Z,84.86
2018-10-18T10:44:16.000Z,84.89
2018-10-18T10:46:42.894Z,84.44
2018-10-18T10:49:09.955Z,83.32
2018-10-18T10:51:37.105Z,81.77
2018-10-18T10:54:05.162Z,81.85
2018-10-18T10:56:32.105Z,81.18
2018-10-18T10:58:59.322Z,80.16
2018-10-18T11:01:27.042Z,80.06
2018-10-18T11:03:55.222Z,80.14
2018-10-18T11:06:22.450Z,79.02
2018-10-18T11:08:49.403Z,77.60
2018-10-18T11:11:16.869Z,76.37
2018-10-18T11:13:43.894Z,76.83
2018-10-18T11:16:10.837Z,77.83
2018-10-18T11:18:38.432Z,74.36
2018-10-18T11:21:06.553Z,73.44
2018-10-18T11:23:33.993Z,74.62
2018-10-18T11:26:00.993Z,74.18
2018-10-18T11:28:27.945Z,73.21
2018-10-18T11:30:54.888Z,72.96
2018-10-18T11:33:21.796Z,70.37
2018-10-18T11:35:48.712Z,67.11
2018-10-18T11:38:15.769Z,64.86
2018-10-18T11:40:42.977Z,63.56
2018-10-18T11:43:10.320Z,63.85
2018-10-18T11:45:37.320Z,64.91
2018-10-18T11:48:04.740Z,66.35
2018-10-18T11:50:31.616Z,66.13
2018-10-18T11:52:58.828Z,66.02
2018-10-18T11:55:25.880Z,66.40
2018-10-18T11:57:52.773Z,67.13
2018-10-18T12:00:19.704Z,67.24
2018-10-18T12:02:47.919Z,68.15
2018-10-18T12:05:14.936Z,67.00
2018-10-18T12:07:41.854Z,66.82
2018-10-18T12:10:09.691Z,66.54
2018-10-18T12:12:36.600Z,66.57
2018-10-18T12:15:04.061Z,66.16
2018-10-18T12:17:30.954Z,64.03
2018-10-18T12:19:57.863Z,64.47
2018-10-18T12:22:24.753Z,65.20
2018-10-18T12:24:51.668Z,62.19
2018-10-18T12:27:18.572Z,60.64
2018-10-18T12:29:45.462Z,59.71
2018-10-18T12:32:12.411Z,59.86
2018-10-18T12:34:39.273Z,59.82
2018-10-18T12:37:06.181Z,59.67
2018-10-18T12:39:33.130Z,58.66
2018-10-18T12:42:00.060Z,59.84
2018-10-18T12:44:31.567Z,60.18
2018-10-18T12:46:58.504Z,57.28
2018-10-18T12:49:25.412Z,58.87
2018-10-18T12:51:52.321Z,59.26
2018-10-18T12:54:19.373Z,58.81
2018-10-18T12:56:46.136Z,59.58
2018-10-18T12:59:13.188Z,59.96
2018-10-18T13:01:40.158Z,59.89
2018-10-18T13:04:07.071Z,60.68
2018-10-18T13:06:34.005Z,60.76
2018-10-18T13:09:00.937Z,61.53
2018-10-18T13:11:28.138Z,61.02
2018-10-18T13:13:55.077Z,61.00
2018-10-18T13:16:21.984Z,60.83
2018-10-18T13:18:48.924Z,61.71
2018-10-18T13:21:15.833Z,62.72
2018-10-18T13:23:42.740Z,63.50
2018-10-18T13:26:09.799Z,63.77
2018-10-18T13:28:36.666Z,63.30
2018-10-18T13:31:04.036Z,62.89
2018-10-18T13:33:30.946Z,63.88
2018-10-18T13:35:57.887Z,62.45
2018-10-18T13:38:24.789Z,63.47
2018-10-18T13:40:51.849Z,61.63
2018-10-18T13:43:19.406Z,61.85
2018-10-18T13:45:46.416Z,61.85
2018-10-18T13:48:13.427Z,62.12
2018-10-18T13:50:40.252Z,60.21
2018-10-18T13:53:07.245Z,60.94
2018-10-18T13:55:34.480Z,61.66
2018-10-18T13:58:01.439Z,62.70
2018-10-18T14:00:29.360Z,63.53
2018-10-18T14:02:56.354Z,59.64
2018-10-18T14:05:23.738Z,59.04
2018-10-18T14:07:51.651Z,59.02
2018-10-18T14:10:18.513Z,59.48
2018-10-18T14:12:45.424Z,59.66
2018-10-18T14:15:12.355Z,60.44
2018-10-18T14:17:39.708Z,60.58
2018-10-18T14:20:06.838Z,61.31
2018-10-18T14:22:34.065Z,61.88
2018-10-18T14:25:00.967Z,61.81
2018-10-18T14:27:28.261Z,62.22
2018-10-18T14:29:55.168Z,62.27
2018-10-18T14:32:22.149Z,62.59
2018-10-18T14:34:49.399Z,63.72
2018-10-18T14:37:16.326Z,63.13
2018-10-18T14:39:43.245Z,63.64
2018-10-18T14:42:10.409Z,64.34
2018-10-18T14:44:37.835Z,64.66
2018-10-18T14:47:04.733Z,64.48
2018-10-18T14:49:31.934Z,64.30
2018-10-18T14:51:58.947Z,64.73
2018-10-18T14:54:25.833Z,63.68
2018-10-18T14:56:52.756Z,63.50
2018-10-18T14:59:19.822Z,63.39
2018-10-18T15:01:46.642Z,63.02
2018-10-18T15:04:13.631Z,63.47
2018-10-18T15:06:40.541Z,63.67
2018-10-18T15:09:07.999Z,62.98
2018-10-18T15:11:34.913Z,63.23
2018-10-18T15:14:02.050Z,62.67
2018-10-18T15:16:28.965Z,62.67
2018-10-18T15:18:55.915Z,62.68
2018-10-18T15:21:22.844Z,62.66
2018-10-18T15:23:49.728Z,62.53
2018-10-18T15:26:16.690Z,62.40
2018-10-18T15:28:43.577Z,62.42
2018-10-18T15:31:10.501Z,62.98
2018-10-18T15:33:37.404Z,62.82
2018-10-18T15:36:04.436Z,62.54
2018-10-18T15:38:31.464Z,61.55
2018-10-18T15:40:58.368Z,61.49
2018-10-18T15:43:25.331Z,61.53
2018-10-18T15:45:52.297Z,61.96
2018-10-18T15:48:19.185Z,61.33
2018-10-18T15:50:46.105Z,62.02
2018-10-18T15:53:13.062Z,61.75
2018-10-18T15:55:39.971Z,62.24
2018-10-18T15:58:06.901Z,63.04
2018-10-18T16:00:33.789Z,62.34
2018-10-18T16:03:00.736Z,63.32
2018-10-18T16:05:27.586Z,63.78
2018-10-18T16:07:54.501Z,63.90
2018-10-18T16:10:21.424Z,64.38
2018-10-18T16:12:48.354Z,64.44
2018-10-18T16:15:15.294Z,65.16
2018-10-18T16:17:42.344Z,66.26
2018-10-18T16:20:09.886Z,66.19
2018-10-18T16:22:37.457Z,66.56
2018-10-18T16:25:05.167Z,67.07
2018-10-18T16:27:32.093Z,68.00
2018-10-18T16:29:59.038Z,67.74
2018-10-18T16:32:26.145Z,67.73
2018-10-18T16:34:53.126Z,68.11
2018-10-18T16:37:20.093Z,68.55
2018-10-18T16:39:47.020Z,68.86
2018-10-18T16:42:13.968Z,68.85
2018-10-18T16:44:40.917Z,69.08
2018-10-18T16:47:07.848Z,68.68
2018-10-18T16:49:34.782Z,69.31
2018-10-18T16:52:01.795Z,70.06
2018-10-18T16:54:28.700Z,70.35
2018-10-18T16:56:55.584Z,70.39
2018-10-18T16:59:22.516Z,70.51
2018-10-18T17:01:49.446Z,70.85
2018-10-18T17:04:16.480Z,71.87
2018-10-18T17:06:43.333Z,72.72
2018-10-18T17:09:10.729Z,73.63
2018-10-18T17:11:37.848Z,73.54
2018-10-18T17:14:04.831Z,74.23
2018-10-18T17:16:31.725Z,74.69
2018-10-18T17:18:58.677Z,74.83
2018-10-18T17:21:25.620Z,75.02
2018-10-18T17:23:52.718Z,74.80
2018-10-18T17:26:19.696Z,75.67
2018-10-18T17:28:46.575Z,75.94
2018-10-18T17:31:13.532Z,76.07
2018-10-18T17:33:40.492Z,75.79
2018-10-18T17:36:07.527Z,76.92
2018-10-18T17:38:34.425Z,77.27
2018-10-18T17:41:01.404Z,77.53
2018-10-18T17:43:28.312Z,77.50
2018-10-18T17:45:55.232Z,77.16
2018-10-18T17:48:22.161Z,76.68
2018-10-18T17:50:49.136Z,77.70
2018-10-18T17:53:16.081Z,78.17
2018-10-18T17:55:43.036Z,77.63
2018-10-18T17:58:10.060Z,78.50
2018-10-18T18:00:36.956Z,78.56
2018-10-18T18:03:03.900Z,78.93
2018-10-18T18:05:30.844Z,77.95
2018-10-18T18:07:57.889Z,78.70
2018-10-18T18:10:24.857Z,79.25
2018-10-18T18:12:51.835Z,79.58
2018-10-18T18:15:19.426Z,80.03
2018-10-18T18:17:46.480Z,80.15
2018-10-18T18:20:13.531Z,79.99
2018-10-18T18:22:40.748Z,79.71
2018-10-18T18:25:09.284Z,80.49
2018-10-18T18:27:36.385Z,79.80
2018-10-18T18:30:05.008Z,79.45
2018-10-18T18:32:32.088Z,79.63
2018-10-18T18:34:59.065Z,80.37
2018-10-18T18:37:26.084Z,80.49
2018-10-18T18:39:53.013Z,80.45
2018-10-18T18:42:20.165Z,81.03
2018-10-18T18:44:47.222Z,81.24
2018-10-18T18:47:14.602Z,81.16
2018-10-18T18:49:41.698Z,80.04
2018-10-18T18:52:09.198Z,80.72
2018-10-18T18:54:36.229Z,80.69
2018-10-18T18:57:03.295Z,81.31
2018-10-18T18:59:30.417Z,81.50
2018-10-18T19:01:58.015Z,81.60
2018-10-18T19:04:24.940Z,82.56
2018-10-18T19:06:52.519Z,81.62
2018-10-18T19:09:19.501Z,81.56
2018-10-18T19:11:46.963Z,81.50
2018-10-18T19:14:14.311Z,81.11
2018-10-18T19:16:41.396Z,80.81
2018-10-18T19:19:08.464Z,82.04
2018-10-18T19:21:35.749Z,81.26
2018-10-18T19:24:03.029Z,83.08
2018-10-18T19:26:30.051Z,83.63
2018-10-18T19:29:03.784Z,82.83
2018-10-18T19:31:30.837Z,84.11
2018-10-18T19:33:57.841Z,82.62
2018-10-18T19:36:25.104Z,82.26
2018-10-18T19:38:52.068Z,82.34
2018-10-18T19:41:19.274Z,83.11
2018-10-18T19:43:46.228Z,82.84
2018-10-18T19:46:13.217Z,83.25
2018-10-18T19:48:40.201Z,83.00
2018-10-18T19:51:07.184Z,83.87
2018-10-18T19:53:34.197Z,84.29
2018-10-18T19:56:01.225Z,84.03
2018-10-18T19:58:28.450Z,84.55
2018-10-18T20:00:55.403Z,83.37
2018-10-18T20:03:22.386Z,84.67
2018-10-18T20:05:49.456Z,85.76
2018-10-18T20:08:16.577Z,86.74
2018-10-18T20:10:43.612Z,87.59
2018-10-18T20:13:10.737Z,87.23
2018-10-18T20:15:37.720Z,87.83
2018-10-18T20:18:04.757Z,88.57
2018-10-18T20:20:31.621Z,86.98
2018-10-18T20:22:58.629Z,86.75
2018-10-18T20:25:25.588Z,86.30
2018-10-18T20:27:52.478Z,85.20
2018-10-18T20:30:19.401Z,86.11
2018-10-18T20:32:46.401Z,86.09
2018-10-18T20:35:13.361Z,86.60
2018-10-18T20:37:40.814Z,86.72
2018-10-18T20:40:10.026Z,85.93
2018-10-18T20:42:36.973Z,85.95
2018-10-18T20:45:04.537Z,85.30
2018-10-18T20:47:31.609Z,84.51
2018-10-18T20:49:58.402Z,85.55
2018-10-18T20:52:25.372Z,86.11
2018-10-18T20:54:52.272Z,86.19
2018-10-18T20:57:19.221Z,86.94
2018-10-18T20:59:46.358Z,85.65
2018-10-18T21:02:13.321Z,84.73
2018-10-18T21:04:40.253Z,84.86
2018-10-18T21:07:07.161Z,85.62
2018-10-18T21:09:34.078Z,84.92
2018-10-18T21:12:01.070Z,85.93
2018-10-18T21:14:27.976Z,84.72
2018-10-18T21:16:54.939Z,85.26
2018-10-18T21:19:21.868Z,85.81
2018-10-18T21:21:48.896Z,86.53
2018-10-18T21:24:15.745Z,86.15
2018-10-18T21:26:42.661Z,86.49
2018-10-18T21:29:09.635Z,85.58
2018-10-18T21:31:36.500Z,85.76
2018-10-18T21:34:03.486Z,85.38
2018-10-18T21:36:30.397Z,85.54
2018-10-18T21:38:57.342Z,86.15
2018-10-18T21:41:24.277Z,85.04
2018-10-18T21:43:51.286Z,85.60
2018-10-18T21:46:18.221Z,85.47
2018-10-18T21:48:45.331Z,85.74
2018-10-18T21:51:12.274Z,85.03
2018-10-18T21:53:39.224Z,85.91
2018-10-18T21:56:06.246Z,85.48
2018-10-18T21:58:33.179Z,86.21
2018-10-18T22:01:00.117Z,86.27
2018-10-18T22:03:27.061Z,86.12
2018-10-18T22:05:53.989Z,87.72
2018-10-18T22:08:20.930Z,87.94
2018-10-18T22:10:47.845Z,85.59
2018-10-18T22:13:14.784Z,86.63
2018-10-18T22:15:41.716Z,86.75
2018-10-18T22:18:08.661Z,86.70
2018-10-18T22:20:35.596Z,86.62
2018-10-18T22:23:02.524Z,87.41
2018-10-18T22:25:29.480Z,87.23
2018-10-18T22:27:56.443Z,88.29
2018-10-18T22:30:23.381Z,87.90
2018-10-18T22:32:50.354Z,87.24
2018-10-18T22:35:17.361Z,86.65
2018-10-18T22:37:44.241Z,87.28
2018-10-18T22:40:11.169Z,87.49
2018-10-18T22:42:38.073Z,87.98
2018-10-18T22:45:05.920Z,88.88
2018-10-18T22:47:32.843Z,87.78
2018-10-18T22:49:59.774Z,87.48
2018-10-18T22:52:26.702Z,87.08
2018-10-18T22:54:53.618Z,87.12
2018-10-18T22:57:20.549Z,87.57
2018-10-18T22:59:47.531Z,87.99
2018-10-18T23:02:14.481Z,88.26
2018-10-18T23:04:41.400Z,88.81
2018-10-18T23:07:08.330Z,87.79
2018-10-18T23:09:35.276Z,87.19
2018-10-18T23:12:02.185Z,86.12
2018-10-18T23:14:29.130Z,87.13
2018-10-18T23:16:56.068Z,86.80
2018-10-18T23:19:22.974Z,86.30
2018-10-18T23:21:49.893Z,87.03
2018-10-18T23:24:17.325Z,87.08
2018-10-18T23:26:44.281Z,86.00
2018-10-18T23:29:11.270Z,86.73
2018-10-18T23:31:38.152Z,86.57
2018-10-18T23:34:05.189Z,86.92
2018-10-18T23:36:32.132Z,85.88
2018-10-18T23:38:59.102Z,86.31
2018-10-18T23:41:25.989Z,86.31
2018-10-18T23:43:52.931Z,85.73
2018-10-18T23:46:19.835Z,85.98
2018-10-18T23:48:46.745Z,86.97
2018-10-18T23:51:13.751Z,86.00
2018-10-18T23:53:40.674Z,85.59
2018-10-18T23:56:07.585Z,85.14
2018-10-18T23:58:34.506Z,86.90
